TimeAEST,TemperatureF,Dew PointF,Humidity,Sea Level PressureIn,VisibilityMPH,Wind Direction,Wind SpeedMPH,Gust SpeedMPH,PrecipitationIn,Events,Conditions,WindDirDegrees,DateUTC
12:00 AM,38,36,88,30.49,25,North,10.4,,,,Partly Cloudy,0,2013-07-10 14:00:00
12:00 AM,39.2,35.6,87,30.48,-9999.0,North,10.4,-,N/A,,Clear,360,2013-07-10 14:00:00
12:30 AM,39.2,35.6,87,30.45,-9999.0,North,10.4,-,N/A,,Clear,360,2013-07-10 14:30:00
1:00 AM,42,37,76,30.48,,North,11.5,,,,,350,2013-07-10 15:00:00
1:00 AM,39.2,35.6,87,30.45,-9999.0,North,10.4,-,N/A,,Clear,360,2013-07-10 15:00:00
1:30 AM,37.4,35.6,93,30.45,-9999.0,North,9.2,-,N/A,,Clear,350,2013-07-10 15:30:00
2:00 AM,39.2,35.6,87,30.48,-9999.0,North,8.1,-,N/A,,Clear,350,2013-07-10 16:00:00
2:30 AM,39.2,35.6,87,30.48,-9999.0,North,12.7,-,N/A,,Clear,360,2013-07-10 16:30:00
3:00 AM,38,35,85,30.49,25,North,10.4,,,,Partly Cloudy,0,2013-07-10 17:00:00
3:00 AM,37.4,35.6,93,30.48,-9999.0,North,10.4,-,N/A,,Clear,360,2013-07-10 17:00:00
3:30 AM,41.0,37.4,87,30.48,-9999.0,North,10.4,-,N/A,,Clear,360,2013-07-10 17:30:00
4:00 AM,39,36,84,30.50,,North,11.5,,,,,0,2013-07-10 18:00:00
4:00 AM,42.8,37.4,81,30.45,-9999.0,North,11.5,-,N/A,,Clear,350,2013-07-10 18:00:00
4:30 AM,41.0,37.4,87,30.45,-9999.0,North,10.4,-,N/A,,Clear,360,2013-07-10 18:30:00
5:00 AM,40,37,83,30.49,25,North,11.5,,,,Partly Cloudy,0,2013-07-10 19:00:00
5:00 AM,39.2,37.4,93,30.45,-9999.0,North,8.1,-,N/A,,Clear,360,2013-07-10 19:00:00
5:30 AM,37.4,35.6,93,30.45,-9999.0,North,9.2,-,N/A,,Clear,360,2013-07-10 19:30:00
6:00 AM,40,37,83,30.49,25,North,11.5,,,,Partly Cloudy,0,2013-07-10 20:00:00
6:00 AM,41.0,37.4,87,30.48,-9999.0,North,11.5,-,N/A,,Clear,360,2013-07-10 20:00:00
6:30 AM,41.0,37.4,87,30.48,-9999.0,North,13.8,-,N/A,,Clear,360,2013-07-10 20:30:00
7:00 AM,39,36,84,30.50,,North,11.5,,,,,0,2013-07-10 21:00:00
7:00 AM,39.2,35.6,87,30.48,-9999.0,North,11.5,-,N/A,,Clear,360,2013-07-10 21:00:00
7:30 AM,39.2,35.6,87,30.48,-9999.0,North,10.4,-,N/A,,Clear,360,2013-07-10 21:30:00
8:00 AM,45,39,71,30.54,25,North,10.4,,,,Partly Cloudy,0,2013-07-10 22:00:00
8:00 AM,41.0,35.6,81,30.51,-9999.0,North,11.5,-,N/A,,Clear,360,2013-07-10 22:00:00
8:30 AM,42.8,37.4,81,30.51,-9999.0,North,10.4,-,N/A,,Clear,360,2013-07-10 22:30:00
9:00 AM,45,39,71,30.54,25,North,10.4,,,,Partly Cloudy,0,2013-07-10 23:00:00
9:00 AM,44.6,39.2,81,30.51,-9999.0,North,10.4,-,N/A,,Clear,360,2013-07-10 23:00:00
9:30 AM,44.6,39.2,81,30.51,-9999.0,North,9.2,-,N/A,,Clear,10,2013-07-10 23:30:00
10:00 AM,48,40,67,30.53,,NNE,8.1,,,,,20,2013-07-11 00:00:00
10:00 AM,48.2,41.0,76,30.51,-9999.0,NNE,8.1,-,N/A,,Clear,20,2013-07-11 00:00:00
10:30 AM,50.0,41.0,71,30.51,-9999.0,NNE,8.1,-,N/A,,Clear,30,2013-07-11 00:30:00
11:00 AM,51.8,39.2,62,30.51,-9999.0,NNE,11.5,-,N/A,,Clear,20,2013-07-11 01:00:00
11:30 AM,53.6,41.0,62,30.48,6.2,NNE,13.8,-,N/A,,Overcast,20,2013-07-11 01:30:00
12:00 PM,56,41,46,30.50,25,North,17.3,,,,Partly Cloudy,10,2013-07-11 02:00:00
12:00 PM,55.4,41.0,58,30.48,6.2,North,17.3,-,N/A,,Mostly Cloudy,10,2013-07-11 02:00:00
12:30 PM,57.2,41.0,55,30.48,6.2,North,18.4,-,N/A,,Mostly Cloudy,10,2013-07-11 02:30:00
1:00 PM,49,45,79,30.43,,NNE,10.4,,,,,20,2013-07-11 03:00:00
1:00 PM,57.2,42.8,59,30.45,6.2,NNE,15.0,-,N/A,,Mostly Cloudy,20,2013-07-11 03:00:00
1:30 PM,55.4,42.8,63,30.45,6.2,North,15.0,-,N/A,,Mostly Cloudy,10,2013-07-11 03:30:00
2:00 PM,57.2,42.8,59,30.42,6.2,NNE,13.8,-,N/A,,Mostly Cloudy,20,2013-07-11 04:00:00
2:30 PM,57.2,42.8,59,30.42,6.2,North,15.0,-,N/A,,Mostly Cloudy,10,2013-07-11 04:30:00
3:00 PM,58,43,46,30.43,25,North,18.4,,,,Partly Cloudy,10,2013-07-11 05:00:00
3:00 PM,57.2,42.8,59,30.42,6.2,North,18.4,-,N/A,,Mostly Cloudy,10,2013-07-11 05:00:00
3:30 PM,57.2,44.6,63,30.42,6.2,North,16.1,-,N/A,,Mostly Cloudy,10,2013-07-11 05:30:00
4:00 PM,49,45,79,30.43,,NNE,10.4,,,,,20,2013-07-11 06:00:00
4:00 PM,55.4,44.6,67,30.39,6.2,North,17.3,-,N/A,,Mostly Cloudy,10,2013-07-11 06:00:00
4:30 PM,53.6,44.6,72,30.39,6.2,North,16.1,-,N/A,,Mostly Cloudy,10,2013-07-11 06:30:00
5:00 PM,53.6,44.6,72,30.39,6.2,North,15.0,-,N/A,,Mostly Cloudy,10,2013-07-11 07:00:00
5:30 PM,51.8,44.6,76,30.39,6.2,North,11.5,-,N/A,,Mostly Cloudy,360,2013-07-11 07:30:00
6:00 PM,51,44,70,30.42,25,North,11.5,,,,Partly Cloudy,0,2013-07-11 08:00:00
6:00 PM,50.0,44.6,82,30.39,6.2,North,11.5,-,N/A,,Mostly Cloudy,360,2013-07-11 08:00:00
6:30 PM,48.2,44.6,87,30.42,6.2,North,10.4,-,N/A,,Mostly Cloudy,360,2013-07-11 08:30:00
7:00 PM,49,45,79,30.43,,NNE,10.4,,,,,20,2013-07-11 09:00:00
7:00 PM,46.4,42.8,87,30.42,6.2,North,8.1,-,N/A,,Mostly Cloudy,10,2013-07-11 09:00:00
7:30 PM,48.2,42.8,82,30.42,6.2,North,8.1,-,N/A,,Mostly Cloudy,360,2013-07-11 09:30:00
8:00 PM,49,45,79,30.43,,NNE,10.4,,,,,20,2013-07-11 10:00:00
8:00 PM,46.4,42.8,87,30.42,-9999.0,NNE,8.1,-,N/A,,Clear,20,2013-07-11 10:00:00
8:30 PM,46.4,42.8,87,30.42,-9999.0,North,8.1,-,N/A,,Clear,10,2013-07-11 10:30:00
9:00 PM,47,44,84,30.43,25,NNE,6.9,,,,Partly Cloudy,20,2013-07-11 11:00:00
9:00 PM,48.2,44.6,87,30.42,-9999.0,NNE,6.9,-,N/A,,Clear,20,2013-07-11 11:00:00
9:30 PM,46.4,44.6,93,30.42,-9999.0,NE,5.8,-,N/A,,Clear,40,2013-07-11 11:30:00
10:00 PM,48,45,84,30.41,25,North,12.7,,,,Partly Cloudy,10,2013-07-11 12:00:00
10:00 PM,50.0,44.6,82,30.42,-9999.0,NNE,10.4,-,N/A,,Clear,20,2013-07-11 12:00:00
10:30 PM,48.2,44.6,87,30.42,-9999.0,NNE,6.9,-,N/A,,Clear,20,2013-07-11 12:30:00
11:00 PM,48,45,84,30.41,25,North,12.7,,,,Partly Cloudy,10,2013-07-11 13:00:00
11:00 PM,48.2,44.6,87,30.42,-9999.0,North,10.4,-,N/A,,Clear,360,2013-07-11 13:00:00
11:30 PM,48.2,44.6,87,30.39,-9999.0,North,12.7,-,N/A,,Clear,10,2013-07-11 13:30:00